Time;durP1;ratioP1;P1;durP2;ratioP2;P2;SDS_P1;SDS_P2;PMS_P1;PMS_P2;Temp;Humidity;BMP_temperature;BMP_pressure;BME280_temperature;BME280_humidity;BME280_pressure;Samples;Min_cycle;Max_cycle;Signal;HPM_P1;HPM_P2
2021/05/16 00:02:22;;;;;;;;;;;21.70;56.90;;;;;;5136321;27;19953;-42
2021/05/16 00:04:47;;;;;;;;;;;21.70;56.70;;;;;;5134680;27;19911;-42
2021/05/16 00:07:13;;;;;;;;;;;21.70;56.70;;;;;;5134906;27;19904;-42
2021/05/16 00:09:40;;;;;;;;;;;21.70;56.70;;;;;;5135634;27;19916;-42
2021/05/16 00:12:07;;;;;;;;;;;21.70;56.60;;;;;;5133135;27;19982;-42
2021/05/16 00:14:32;;;;;;;;;;;21.70;56.50;;;;;;5135529;27;20032;-42
2021/05/16 00:16:58;;;;;;;;;;;21.70;56.60;;;;;;5139100;27;20364;-42
2021/05/16 00:19:25;;;;;;;;;;;21.70;56.90;;;;;;5130877;27;19915;-41
2021/05/16 00:21:51;;;;;;;;;;;21.70;57.60;;;;;;5138771;27;19915;-42
2021/05/16 00:24:17;;;;;;;;;;;21.70;57.80;;;;;;5124565;27;19903;-41
2021/05/16 00:26:42;;;;;;;;;;;21.60;57.80;;;;;;5130085;27;20352;-42
2021/05/16 00:29:08;;;;;;;;;;;21.60;57.80;;;;;;5133701;27;19922;-43
2021/05/16 00:31:34;;;;;;;;;;;21.60;58.00;;;;;;5138033;27;19911;-41
2021/05/16 00:34:00;;;;;;;;;;;21.60;57.90;;;;;;5134626;27;19915;-41
2021/05/16 00:36:26;;;;;;;;;;;21.60;58.20;;;;;;5135124;27;19907;-41
2021/05/16 00:38:52;;;;;;;;;;;21.60;58.10;;;;;;5136618;27;19910;-42
2021/05/16 00:41:18;;;;;;;;;;;21.60;58.10;;;;;;5138494;27;19915;-40
2021/05/16 00:43:44;;;;;;;;;;;21.60;57.90;;;;;;5132123;27;19963;-41
2021/05/16 00:46:10;;;;;;;;;;;21.60;57.70;;;;;;5139474;27;19938;-42
2021/05/16 00:48:36;;;;;;;;;;;21.60;57.30;;;;;;5135083;27;19922;-42
2021/05/16 00:51:02;;;;;;;;;;;21.60;57.30;;;;;;5140095;27;20435;-42
2021/05/16 00:53:28;;;;;;;;;;;21.60;57.40;;;;;;5139368;27;19911;-42
2021/05/16 00:55:54;;;;;;;;;;;21.50;57.20;;;;;;5134790;27;20001;-42
2021/05/16 00:58:20;;;;;;;;;;;21.50;57.10;;;;;;5117992;27;19939;-42
2021/05/16 01:00:46;;;;;;;;;;;21.50;57.10;;;;;;5138156;27;19903;-42
2021/05/16 01:03:12;;;;;;;;;;;21.50;57.10;;;;;;5133775;27;20451;-43
2021/05/16 01:05:38;;;;;;;;;;;21.50;57.30;;;;;;5138267;27;19907;-43
2021/05/16 01:08:04;;;;;;;;;;;21.50;57.80;;;;;;5133583;27;19996;-42
2021/05/16 01:10:30;;;;;;;;;;;21.50;58.20;;;;;;5142497;27;19918;-42
2021/05/16 01:12:57;;;;;;;;;;;21.40;58.30;;;;;;5114060;28;19904;-42
2021/05/16 01:15:24;;;;;;;;;;;21.40;58.40;;;;;;5133279;27;19912;-41
2021/05/16 01:17:49;;;;;;;;;;;21.40;58.40;;;;;;5136919;27;19915;-41
2021/05/16 01:20:16;;;;;;;;;;;21.40;58.40;;;;;;5138721;27;19904;-42
2021/05/16 01:22:42;;;;;;;;;;;21.40;58.40;;;;;;5134749;27;19928;-41
2021/05/16 01:25:08;;;;;;;;;;;21.40;58.60;;;;;;5137609;27;19903;-42
2021/05/16 01:27:34;;;;;;;;;;;21.30;58.40;;;;;;5142186;27;19941;-41
2021/05/16 01:30:00;;;;;;;;;;;21.30;58.50;;;;;;5133278;27;19923;-42
2021/05/16 01:32:26;;;;;;;;;;;21.30;58.60;;;;;;5136231;27;19915;-41
2021/05/16 01:34:52;;;;;;;;;;;21.30;58.50;;;;;;5134633;27;19910;-41
2021/05/16 01:37:18;;;;;;;;;;;21.30;58.40;;;;;;5141066;27;19903;-42
2021/05/16 01:39:48;;;;;;;;;;;21.30;58.50;;;;;;5138495;27;19907;-41
2021/05/16 01:42:14;;;;;;;;;;;21.30;58.40;;;;;;5142479;27;19915;-41
2021/05/16 01:44:40;;;;;;;;;;;21.30;58.50;;;;;;5133652;27;19935;-44
2021/05/16 01:47:06;;;;;;;;;;;21.30;58.30;;;;;;5138201;27;19921;-42
2021/05/16 01:49:47;;;;;;;;;;;21.20;58.30;;;;;;5135545;27;20561;-41
2021/05/16 01:52:13;;;;;;;;;;;21.20;58.10;;;;;;5131418;27;19918;-42
2021/05/16 01:54:39;;;;;;;;;;;21.20;58.20;;;;;;5132428;27;19908;-43
2021/05/16 01:57:05;;;;;;;;;;;21.20;58.30;;;;;;5133021;27;19911;-41
2021/05/16 01:59:31;;;;;;;;;;;21.20;58.40;;;;;;5132119;27;19903;-42
2021/05/16 02:01:59;;;;;;;;;;;21.10;58.40;;;;;;5132397;27;19915;-41
2021/05/16 02:04:28;;;;;;;;;;;21.10;58.30;;;;;;5132797;27;19918;-41
2021/05/16 02:06:54;;;;;;;;;;;21.10;58.40;;;;;;5129930;27;19961;-41
2021/05/16 02:09:20;;;;;;;;;;;21.10;58.50;;;;;;5118590;27;19915;-41
2021/05/16 02:11:47;;;;;;;;;;;21.10;58.40;;;;;;5133410;27;20432;-41
2021/05/16 02:14:21;;;;;;;;;;;21.10;58.40;;;;;;5137247;27;19994;-42
2021/05/16 02:16:47;;;;;;;;;;;21.00;58.30;;;;;;5127696;27;20268;-41
2021/05/16 02:19:13;;;;;;;;;;;21.00;58.50;;;;;;5135983;27;19904;-42
2021/05/16 02:21:40;;;;;;;;;;;21.00;58.60;;;;;;5139941;27;19907;-41
2021/05/16 02:24:06;;;;;;;;;;;21.00;58.50;;;;;;5131959;27;19975;-41
2021/05/16 02:26:32;;;;;;;;;;;21.00;58.50;;;;;;5132472;27;20002;-41
2021/05/16 02:28:58;;;;;;;;;;;21.00;58.50;;;;;;5133389;27;19916;-42
2021/05/16 02:31:24;;;;;;;;;;;21.00;58.20;;;;;;5133161;27;20022;-41
2021/05/16 02:33:50;;;;;;;;;;;21.00;57.80;;;;;;5132809;27;19971;-43
2021/05/16 02:36:16;;;;;;;;;;;20.90;57.70;;;;;;5130168;27;19904;-42
2021/05/16 02:38:41;;;;;;;;;;;20.90;57.70;;;;;;5136224;27;19908;-42
2021/05/16 02:41:07;;;;;;;;;;;20.90;57.60;;;;;;5127647;27;19910;-41
2021/05/16 02:43:33;;;;;;;;;;;21.00;57.50;;;;;;5134602;27;19998;-42
2021/05/16 02:45:59;;;;;;;;;;;21.00;57.90;;;;;;5132164;27;19933;-41
2021/05/16 02:48:25;;;;;;;;;;;20.90;58.20;;;;;;5140487;27;19916;-42
2021/05/16 02:50:51;;;;;;;;;;;20.90;58.20;;;;;;5134166;27;19914;-41
2021/05/16 02:53:20;;;;;;;;;;;20.90;58.30;;;;;;5131184;27;19926;-41
2021/05/16 02:55:47;;;;;;;;;;;20.90;58.40;;;;;;5139072;27;19903;-41
2021/05/16 02:58:13;;;;;;;;;;;20.90;58.30;;;;;;5128958;27;19907;-41
2021/05/16 03:00:39;;;;;;;;;;;20.80;58.20;;;;;;5136250;27;19916;-42
2021/05/16 03:03:06;;;;;;;;;;;20.80;58.10;;;;;;5132029;27;19907;-41
2021/05/16 03:05:32;;;;;;;;;;;20.80;58.30;;;;;;5122815;28;19904;-41
2021/05/16 03:07:57;;;;;;;;;;;20.80;58.30;;;;;;5135077;27;19914;-42
2021/05/16 03:10:23;;;;;;;;;;;20.80;58.00;;;;;;5139025;27;20699;-43
2021/05/16 03:12:49;;;;;;;;;;;20.80;57.90;;;;;;5131951;27;19912;-45
2021/05/16 03:15:15;;;;;;;;;;;20.70;57.70;;;;;;5141184;27;19955;-41
2021/05/16 03:17:41;;;;;;;;;;;20.70;57.60;;;;;;5131756;27;19911;-41
2021/05/16 03:20:07;;;;;;;;;;;20.70;57.60;;;;;;5135880;27;19908;-41
2021/05/16 03:22:33;;;;;;;;;;;20.70;57.60;;;;;;5113653;28;19904;-42
2021/05/16 03:24:59;;;;;;;;;;;20.70;57.60;;;;;;5127734;27;20022;-41
2021/05/16 03:27:25;;;;;;;;;;;20.70;57.80;;;;;;5138147;27;19911;-42
2021/05/16 03:29:52;;;;;;;;;;;20.60;57.60;;;;;;5135067;27;19916;-41
2021/05/16 03:32:18;;;;;;;;;;;20.60;57.60;;;;;;5131847;27;19914;-41
2021/05/16 03:34:44;;;;;;;;;;;20.60;57.70;;;;;;5105038;28;20766;-41
2021/05/16 03:37:10;;;;;;;;;;;20.60;57.70;;;;;;5127939;27;19908;-41
2021/05/16 03:39:36;;;;;;;;;;;20.60;57.80;;;;;;5131880;27;19907;-41
2021/05/16 03:42:02;;;;;;;;;;;20.60;57.80;;;;;;5134051;27;19903;-41
2021/05/16 03:44:28;;;;;;;;;;;20.60;57.80;;;;;;5133973;28;20368;-41
2021/05/16 03:46:54;;;;;;;;;;;20.50;57.90;;;;;;5135596;28;19930;-41
2021/05/16 03:49:20;;;;;;;;;;;20.50;57.80;;;;;;5136219;28;20367;-41
2021/05/16 03:51:45;;;;;;;;;;;20.50;57.80;;;;;;5132110;28;19965;-41
2021/05/16 03:54:11;;;;;;;;;;;20.50;57.90;;;;;;5134153;28;19918;-41
2021/05/16 03:56:38;;;;;;;;;;;20.50;57.90;;;;;;5128776;28;20535;-42
2021/05/16 03:59:04;;;;;;;;;;;20.40;57.90;;;;;;5137959;28;19907;-41
2021/05/16 04:01:30;;;;;;;;;;;20.40;57.90;;;;;;5139968;28;20009;-41
2021/05/16 04:03:56;;;;;;;;;;;20.40;57.90;;;;;;5130592;28;19904;-41
2021/05/16 04:06:22;;;;;;;;;;;20.40;58.00;;;;;;5135494;28;19908;-43
2021/05/16 04:08:48;;;;;;;;;;;20.40;58.00;;;;;;5135512;28;20067;-42
2021/05/16 04:11:14;;;;;;;;;;;20.40;58.10;;;;;;5112117;28;19959;-41
2021/05/16 04:13:39;;;;;;;;;;;20.40;58.00;;;;;;5129761;28;19990;-41
2021/05/16 04:16:05;;;;;;;;;;;20.30;58.00;;;;;;5131569;28;19908;-41
2021/05/16 04:18:31;;;;;;;;;;;20.30;58.00;;;;;;5127926;28;19957;-42
2021/05/16 04:20:57;;;;;;;;;;;20.30;58.10;;;;;;5125145;28;19975;-42
2021/05/16 04:23:25;;;;;;;;;;;20.30;58.10;;;;;;5130716;28;19946;-42
2021/05/16 04:25:51;;;;;;;;;;;20.30;58.10;;;;;;5136198;28;19908;-41
2021/05/16 04:28:17;;;;;;;;;;;20.30;58.20;;;;;;5138000;28;19973;-41
2021/05/16 04:30:43;;;;;;;;;;;20.20;58.10;;;;;;5130716;28;19907;-42
2021/05/16 04:33:09;;;;;;;;;;;20.30;58.20;;;;;;5137047;28;19918;-41
2021/05/16 04:35:35;;;;;;;;;;;20.20;58.20;;;;;;5127048;28;19912;-42
2021/05/16 04:38:01;;;;;;;;;;;20.20;58.20;;;;;;5135665;28;20269;-41
2021/05/16 04:40:26;;;;;;;;;;;20.20;58.20;;;;;;5127373;28;19915;-42
2021/05/16 04:42:52;;;;;;;;;;;20.20;58.30;;;;;;5137000;27;19911;-41
2021/05/16 04:45:18;;;;;;;;;;;20.10;58.30;;;;;;5138189;27;19925;-43
2021/05/16 04:47:45;;;;;;;;;;;20.10;58.30;;;;;;5134944;27;19912;-42
2021/05/16 04:50:13;;;;;;;;;;;20.10;58.30;;;;;;5133261;27;19970;-41
2021/05/16 04:52:39;;;;;;;;;;;20.10;58.30;;;;;;5138273;27;19914;-41
2021/05/16 04:55:05;;;;;;;;;;;20.10;58.30;;;;;;5130369;27;19912;-41
2021/05/16 04:57:31;;;;;;;;;;;20.10;58.40;;;;;;5139116;27;19967;-41
2021/05/16 04:59:57;;;;;;;;;;;20.00;58.30;;;;;;5139315;27;19907;-41
2021/05/16 05:02:23;;;;;;;;;;;20.10;58.40;;;;;;5136824;27;20423;-42
2021/05/16 05:04:50;;;;;;;;;;;20.00;58.40;;;;;;5135200;27;19907;-41
2021/05/16 05:07:16;;;;;;;;;;;20.00;58.50;;;;;;5135190;27;19910;-41
2021/05/16 05:09:42;;;;;;;;;;;20.00;58.50;;;;;;5138951;27;19939;-41
2021/05/16 05:12:08;;;;;;;;;;;20.00;58.50;;;;;;5137921;27;20691;-41
2021/05/16 05:14:34;;;;;;;;;;;19.90;58.50;;;;;;5141552;27;19915;-41
2021/05/16 05:17:00;;;;;;;;;;;19.90;58.50;;;;;;5140072;27;19911;-42
2021/05/16 05:19:26;;;;;;;;;;;19.90;58.60;;;;;;5136561;27;19903;-41
2021/05/16 05:21:52;;;;;;;;;;;19.90;58.60;;;;;;5136862;27;19904;-42
2021/05/16 05:24:18;;;;;;;;;;;19.90;59.20;;;;;;5134507;27;19907;-40
2021/05/16 05:26:44;;;;;;;;;;;19.80;58.60;;;;;;5138143;27;19942;-41
2021/05/16 05:29:10;;;;;;;;;;;19.80;58.70;;;;;;5134512;27;19983;-41
2021/05/16 05:31:36;;;;;;;;;;;19.80;58.70;;;;;;5130312;27;19907;-41
2021/05/16 05:34:02;;;;;;;;;;;19.80;58.70;;;;;;5136452;27;19910;-41
2021/05/16 05:36:28;;;;;;;;;;;19.80;58.70;;;;;;5128383;27;19912;-42
2021/05/16 05:38:55;;;;;;;;;;;19.80;58.80;;;;;;5139986;27;19908;-41
2021/05/16 05:41:21;;;;;;;;;;;19.80;58.80;;;;;;5132116;27;19954;-42
2021/05/16 05:43:46;;;;;;;;;;;19.70;58.80;;;;;;5129837;27;19903;-41
2021/05/16 05:46:12;;;;;;;;;;;19.80;58.90;;;;;;5133695;27;19980;-41
2021/05/16 05:48:38;;;;;;;;;;;19.70;58.80;;;;;;5137589;27;19911;-41
2021/05/16 05:51:04;;;;;;;;;;;19.70;58.90;;;;;;5133043;27;19911;-42
2021/05/16 05:53:30;;;;;;;;;;;19.70;58.90;;;;;;5131715;27;20055;-42
2021/05/16 05:55:56;;;;;;;;;;;19.70;59.00;;;;;;5140870;27;19903;-41
2021/05/16 05:58:22;;;;;;;;;;;19.60;59.00;;;;;;5133670;27;19903;-42
2021/05/16 06:00:48;;;;;;;;;;;19.60;59.00;;;;;;5129874;27;19998;-41
2021/05/16 06:03:14;;;;;;;;;;;19.60;59.00;;;;;;5136314;27;19960;-41
2021/05/16 06:05:40;;;;;;;;;;;19.60;59.10;;;;;;5137032;27;19935;-41
2021/05/16 06:08:05;;;;;;;;;;;19.60;59.20;;;;;;5129735;27;20630;-41
2021/05/16 06:10:31;;;;;;;;;;;19.50;59.10;;;;;;5125257;27;19999;-41
2021/05/16 06:12:57;;;;;;;;;;;19.50;59.20;;;;;;5129917;27;19978;-41
2021/05/16 06:15:24;;;;;;;;;;;19.50;59.20;;;;;;5132753;27;19919;-41
2021/05/16 06:17:50;;;;;;;;;;;19.50;59.30;;;;;;5136910;27;19939;-42
2021/05/16 06:20:16;;;;;;;;;;;19.50;59.30;;;;;;5134431;27;19904;-41
2021/05/16 06:22:42;;;;;;;;;;;19.50;59.30;;;;;;5135282;27;19908;-41
2021/05/16 06:25:08;;;;;;;;;;;19.40;59.20;;;;;;5136190;27;19935;-42
2021/05/16 06:27:34;;;;;;;;;;;19.50;59.30;;;;;;5140800;27;19908;-42
2021/05/16 06:30:00;;;;;;;;;;;19.50;59.30;;;;;;5136904;27;19915;-41
2021/05/16 06:32:26;;;;;;;;;;;19.50;59.30;;;;;;5136219;27;20527;-41
2021/05/16 06:34:52;;;;;;;;;;;19.40;59.30;;;;;;5135844;27;19930;-41
2021/05/16 06:37:18;;;;;;;;;;;19.40;59.40;;;;;;5130671;27;19937;-41
2021/05/16 06:39:44;;;;;;;;;;;19.40;59.40;;;;;;5135020;27;20325;-43
2021/05/16 06:42:09;;;;;;;;;;;19.30;59.40;;;;;;5129221;27;19914;-42
2021/05/16 06:44:35;;;;;;;;;;;19.30;59.40;;;;;;5136050;27;19914;-41
2021/05/16 06:47:01;;;;;;;;;;;19.40;59.50;;;;;;5132675;27;19910;-41
2021/05/16 06:49:27;;;;;;;;;;;19.30;59.50;;;;;;5132982;27;19920;-42
2021/05/16 06:51:53;;;;;;;;;;;19.30;59.50;;;;;;5135445;27;19910;-41
2021/05/16 06:54:19;;;;;;;;;;;19.30;59.60;;;;;;5131459;27;19987;-41
2021/05/16 06:56:45;;;;;;;;;;;19.30;59.60;;;;;;5116236;27;19915;-41
2021/05/16 06:59:11;;;;;;;;;;;19.30;59.60;;;;;;5133471;27;19903;-41
2021/05/16 07:01:37;;;;;;;;;;;19.30;59.70;;;;;;5134470;27;20053;-42
2021/05/16 07:04:03;;;;;;;;;;;19.30;59.70;;;;;;5127283;27;19908;-41
2021/05/16 07:06:28;;;;;;;;;;;19.20;59.70;;;;;;5135665;27;19926;-41
2021/05/16 07:08:54;;;;;;;;;;;19.20;59.70;;;;;;5132357;27;19920;-41
2021/05/16 07:11:20;;;;;;;;;;;19.20;59.80;;;;;;5132481;27;19907;-41
2021/05/16 07:13:46;;;;;;;;;;;19.20;59.80;;;;;;5130955;27;19914;-41
2021/05/16 07:16:12;;;;;;;;;;;19.20;59.90;;;;;;5132819;27;20001;-41
2021/05/16 07:18:38;;;;;;;;;;;19.20;59.90;;;;;;5132434;27;19971;-40
2021/05/16 07:21:04;;;;;;;;;;;19.10;59.80;;;;;;5136815;27;20260;-41
2021/05/16 07:23:30;;;;;;;;;;;19.10;59.90;;;;;;5134435;27;19960;-41
2021/05/16 07:25:57;;;;;;;;;;;19.10;60.60;;;;;;5129739;27;19907;-41
2021/05/16 07:28:24;;;;;;;;;;;19.10;59.90;;;;;;5133089;27;19908;-41
2021/05/16 07:30:50;;;;;;;;;;;19.10;59.90;;;;;;5139212;27;20570;-42
2021/05/16 07:33:15;;;;;;;;;;;19.10;60.00;;;;;;5132064;27;19962;-41
2021/05/16 07:35:42;;;;;;;;;;;19.10;60.00;;;;;;5131582;27;19986;-42
2021/05/16 07:38:08;;;;;;;;;;;19.10;60.10;;;;;;5136502;27;19903;-41
2021/05/16 07:40:34;;;;;;;;;;;19.00;60.10;;;;;;5132392;27;19933;-41
2021/05/16 07:43:00;;;;;;;;;;;19.00;60.20;;;;;;5133516;27;19907;-41
2021/05/16 07:45:26;;;;;;;;;;;19.00;60.20;;;;;;5133936;27;19929;-41
2021/05/16 07:47:52;;;;;;;;;;;19.00;60.20;;;;;;5136227;28;20364;-41
2021/05/16 07:50:18;;;;;;;;;;;19.00;60.30;;;;;;5131357;28;19912;-42
2021/05/16 07:52:44;;;;;;;;;;;19.00;60.30;;;;;;5135396;28;20322;-41
2021/05/16 07:55:10;;;;;;;;;;;19.00;60.30;;;;;;5130604;28;19938;-41
2021/05/16 07:57:36;;;;;;;;;;;18.90;60.30;;;;;;5128595;28;19908;-41
2021/05/16 08:00:03;;;;;;;;;;;18.90;60.30;;;;;;5132007;28;19911;-41
2021/05/16 08:02:29;;;;;;;;;;;18.90;60.30;;;;;;5131991;28;19914;-41
2021/05/16 08:04:55;;;;;;;;;;;18.90;60.40;;;;;;5127667;28;19947;-41
2021/05/16 08:07:21;;;;;;;;;;;18.90;60.40;;;;;;5131914;28;20364;-41
2021/05/16 08:09:47;;;;;;;;;;;18.90;60.50;;;;;;5134910;28;19932;-41
2021/05/16 08:12:13;;;;;;;;;;;18.90;60.50;;;;;;5131770;28;19923;-41
2021/05/16 08:14:38;;;;;;;;;;;18.80;60.50;;;;;;5138668;28;19959;-41
2021/05/16 08:17:04;;;;;;;;;;;18.80;60.50;;;;;;5133049;27;20445;-41
2021/05/16 08:19:30;;;;;;;;;;;18.80;60.50;;;;;;5134404;27;19941;-41
2021/05/16 08:21:56;;;;;;;;;;;18.80;60.60;;;;;;5135565;27;19910;-41
2021/05/16 08:24:22;;;;;;;;;;;18.80;60.70;;;;;;5138995;27;19904;-41
2021/05/16 08:26:48;;;;;;;;;;;18.70;60.70;;;;;;5134215;27;19914;-41
2021/05/16 08:29:14;;;;;;;;;;;18.80;60.80;;;;;;5133025;27;20607;-41
2021/05/16 08:31:40;;;;;;;;;;;18.80;60.80;;;;;;5136374;27;20013;-42
2021/05/16 08:34:06;;;;;;;;;;;18.70;60.70;;;;;;5138311;27;19975;-41
2021/05/16 08:36:33;;;;;;;;;;;18.80;60.90;;;;;;5119904;28;19910;-41
2021/05/16 08:38:59;;;;;;;;;;;18.70;60.90;;;;;;5133174;27;19911;-41
2021/05/16 08:41:24;;;;;;;;;;;18.70;60.90;;;;;;5134331;27;19907;-42
2021/05/16 08:43:50;;;;;;;;;;;18.70;61.00;;;;;;5132267;27;19908;-43
2021/05/16 08:46:16;;;;;;;;;;;18.70;61.00;;;;;;5139125;27;20420;-41
2021/05/16 08:48:42;;;;;;;;;;;18.60;61.00;;;;;;5135194;27;19918;-42
2021/05/16 08:51:09;;;;;;;;;;;18.60;61.10;;;;;;5134914;27;19908;-41
2021/05/16 08:53:34;;;;;;;;;;;18.60;61.10;;;;;;5139000;27;19911;-41
2021/05/16 08:56:03;;;;;;;;;;;18.60;61.10;;;;;;5134857;27;19926;-41
2021/05/16 08:58:29;;;;;;;;;;;18.60;61.10;;;;;;5138198;27;19997;-41
2021/05/16 09:00:55;;;;;;;;;;;18.60;61.10;;;;;;5138536;27;19918;-41
2021/05/16 09:03:21;;;;;;;;;;;18.60;61.10;;;;;;5131600;27;19943;-41
2021/05/16 09:05:48;;;;;;;;;;;18.60;61.10;;;;;;5135900;27;19903;-41
2021/05/16 09:08:16;;;;;;;;;;;18.50;61.10;;;;;;5133646;27;19907;-41
2021/05/16 09:10:45;;;;;;;;;;;18.50;61.10;;;;;;5131605;27;19912;-41
2021/05/16 09:13:18;;;;;;;;;;;18.50;61.20;;;;;;5136823;27;20682;-41
2021/05/16 09:16:04;;;;;;;;;;;18.50;61.30;;;;;;5134771;27;19912;-41
2021/05/16 09:18:51;;;;;;;;;;;18.50;61.30;;;;;;5134375;27;19908;-41
2021/05/16 09:21:20;;;;;;;;;;;18.50;61.40;;;;;;5127246;27;19938;-41
2021/05/16 09:23:49;;;;;;;;;;;18.50;61.40;;;;;;5138342;27;19932;-41
2021/05/16 09:26:15;;;;;;;;;;;18.50;61.50;;;;;;5137413;27;19912;-41
2021/05/16 09:28:41;;;;;;;;;;;18.40;61.50;;;;;;5134488;27;19922;-41
2021/05/16 09:31:08;;;;;;;;;;;18.40;61.50;;;;;;5134490;27;19904;-41
2021/05/16 09:33:34;;;;;;;;;;;18.40;61.50;;;;;;5133142;27;19907;-41
2021/05/16 09:36:06;;;;;;;;;;;18.40;61.50;;;;;;5135173;27;19915;-41
2021/05/16 09:38:33;;;;;;;;;;;18.40;61.50;;;;;;5136224;27;19977;-41
2021/05/16 09:40:59;;;;;;;;;;;18.40;61.50;;;;;;5135710;27;19910;-42
2021/05/16 09:43:26;;;;;;;;;;;18.40;61.60;;;;;;5133716;27;20289;-41
2021/05/16 09:45:56;;;;;;;;;;;18.40;61.50;;;;;;5119172;27;20485;-41
2021/05/16 09:48:31;;;;;;;;;;;18.30;61.60;;;;;;5129957;27;19918;-41
2021/05/16 09:51:04;;;;;;;;;;;18.30;61.60;;;;;;5126093;28;19933;-43
2021/05/16 09:53:30;;;;;;;;;;;18.30;61.60;;;;;;5126302;28;19947;-41
2021/05/16 09:56:16;;;;;;;;;;;18.30;61.70;;;;;;5125830;28;19911;-41
2021/05/16 09:58:42;;;;;;;;;;;18.30;61.70;;;;;;5125742;28;19932;-41
2021/05/16 10:01:08;;;;;;;;;;;18.20;61.70;;;;;;5125927;28;19904;-41
2021/05/16 10:03:35;;;;;;;;;;;18.20;61.70;;;;;;5107427;28;19911;-41
2021/05/16 10:06:01;;;;;;;;;;;18.20;61.70;;;;;;5125528;28;19968;-42
2021/05/16 10:08:27;;;;;;;;;;;18.20;61.80;;;;;;5136087;27;19918;-42
2021/05/16 10:10:52;;;;;;;;;;;18.20;61.80;;;;;;5139131;27;19911;-41
2021/05/16 10:13:18;;;;;;;;;;;18.20;61.80;;;;;;5125185;28;19915;-41
2021/05/16 10:15:44;;;;;;;;;;;18.20;61.90;;;;;;5107086;28;19961;-41
2021/05/16 10:18:10;;;;;;;;;;;18.20;61.90;;;;;;5107263;28;19914;-42
2021/05/16 10:20:38;;;;;;;;;;;18.20;62.00;;;;;;5109761;28;20003;-41
2021/05/16 10:23:05;;;;;;;;;;;18.10;61.90;;;;;;5125329;28;19904;-42
2021/05/16 10:25:41;;;;;;;;;;;18.10;61.90;;;;;;5125191;28;19904;-41
2021/05/16 10:28:08;;;;;;;;;;;18.10;62.00;;;;;;5125101;28;19904;-41
2021/05/16 10:30:34;;;;;;;;;;;18.10;62.00;;;;;;5125228;28;19904;-41
2021/05/16 10:33:00;;;;;;;;;;;18.10;62.00;;;;;;5125179;28;19908;-41
2021/05/16 10:35:27;;;;;;;;;;;18.10;62.10;;;;;;5124745;28;19963;-41
2021/05/16 10:37:54;;;;;;;;;;;18.10;62.10;;;;;;5119629;28;19904;-41
2021/05/16 10:40:23;;;;;;;;;;;18.10;62.10;;;;;;5104025;28;19908;-42
2021/05/16 10:42:50;;;;;;;;;;;18.10;62.10;;;;;;5142839;27;19903;-41
2021/05/16 10:45:23;;;;;;;;;;;18.00;62.10;;;;;;5127017;27;19947;-42
2021/05/16 10:47:53;;;;;;;;;;;18.00;62.10;;;;;;5145409;27;20370;-41
2021/05/16 10:50:19;;;;;;;;;;;18.00;62.30;;;;;;5133531;27;20000;-41
2021/05/16 10:53:03;;;;;;;;;;;18.00;62.20;;;;;;5124655;28;20000;-41
2021/05/16 10:55:30;;;;;;;;;;;18.00;62.30;;;;;;5124521;28;20650;-42
2021/05/16 10:57:56;;;;;;;;;;;18.00;62.40;;;;;;5106202;28;19964;-42
2021/05/16 11:00:26;;;;;;;;;;;18.00;62.40;;;;;;5106327;28;19912;-42
2021/05/16 11:02:58;;;;;;;;;;;18.00;62.40;;;;;;5124471;28;19938;-41
2021/05/16 11:08:09;;;;;;;;;;;17.90;62.50;;;;;;5125393;27;19929;-41
2021/05/16 11:10:36;;;;;;;;;;;17.90;62.50;;;;;;5124374;28;19918;-41
2021/05/16 11:13:14;;;;;;;;;;;17.90;63.20;;;;;;5127353;27;19904;-43
2021/05/16 11:15:52;;;;;;;;;;;17.90;62.60;;;;;;5123422;28;19920;-42
2021/05/16 11:18:19;;;;;;;;;;;17.90;62.50;;;;;;5124430;28;19907;-41
2021/05/16 11:20:51;;;;;;;;;;;17.90;62.60;;;;;;5124276;28;19912;-41
2021/05/16 11:23:23;;;;;;;;;;;17.90;62.50;;;;;;5124368;28;19904;-42
2021/05/16 11:25:55;;;;;;;;;;;17.90;62.60;;;;;;5123868;28;19903;-43
2021/05/16 11:28:22;;;;;;;;;;;17.90;62.60;;;;;;5123976;28;19915;-42
2021/05/16 11:30:49;;;;;;;;;;;17.80;62.60;;;;;;5123861;28;19936;-42
2021/05/16 11:33:25;;;;;;;;;;;17.80;62.60;;;;;;5108079;28;19972;-44
2021/05/16 11:35:51;;;;;;;;;;;17.80;62.60;;;;;;5103223;28;19987;-42
2021/05/16 11:38:26;;;;;;;;;;;17.80;62.60;;;;;;5112397;28;19903;-42
2021/05/16 11:40:54;;;;;;;;;;;17.80;62.70;;;;;;5129043;27;19988;-42
2021/05/16 11:43:27;;;;;;;;;;;17.80;62.70;;;;;;5144438;27;19950;-42
2021/05/16 11:45:53;;;;;;;;;;;17.80;62.80;;;;;;5128418;27;19910;-43
2021/05/16 11:48:23;;;;;;;;;;;17.80;62.80;;;;;;5128678;28;19946;-42
2021/05/16 11:50:49;;;;;;;;;;;17.70;62.80;;;;;;5132142;27;19903;-42
2021/05/16 11:53:20;;;;;;;;;;;17.70;62.80;;;;;;5129466;28;21101;-41
2021/05/16 11:55:46;;;;;;;;;;;17.70;62.80;;;;;;5124753;28;19907;-42
2021/05/16 11:58:12;;;;;;;;;;;17.80;62.90;;;;;;5134442;28;19919;-41
2021/05/16 12:00:38;;;;;;;;;;;17.70;62.90;;;;;;5131126;28;19903;-42
2021/05/16 12:03:10;;;;;;;;;;;17.70;62.90;;;;;;5134256;28;19973;-42
2021/05/16 12:05:36;;;;;;;;;;;17.70;62.90;;;;;;5128609;28;19914;-42
2021/05/16 12:08:15;;;;;;;;;;;17.70;62.90;;;;;;5126912;28;19994;-42
2021/05/16 12:10:41;;;;;;;;;;;17.70;62.90;;;;;;5127705;28;19914;-42
2021/05/16 12:13:19;;;;;;;;;;;17.70;63.00;;;;;;5127068;28;19903;-41
2021/05/16 12:15:46;;;;;;;;;;;17.70;63.00;;;;;;5103208;28;19924;-42
2021/05/16 12:18:21;;;;;;;;;;;17.70;63.00;;;;;;5128447;27;19988;-43
2021/05/16 12:21:00;;;;;;;;;;;17.70;63.00;;;;;;5123359;28;19907;-41
2021/05/16 12:23:26;;;;;;;;;;;17.70;63.00;;;;;;5123540;28;19930;-42
2021/05/16 12:25:52;;;;;;;;;;;17.70;63.00;;;;;;5123451;28;19904;-41
2021/05/16 12:28:18;;;;;;;;;;;17.70;63.00;;;;;;5123065;28;19907;-42
2021/05/16 12:30:44;;;;;;;;;;;17.60;63.00;;;;;;5105173;28;19910;-42
2021/05/16 12:33:10;;;;;;;;;;;17.70;63.00;;;;;;5123315;28;19915;-41
2021/05/16 12:35:36;;;;;;;;;;;17.60;63.00;;;;;;5139018;28;19907;-42
2021/05/16 12:38:12;;;;;;;;;;;17.60;63.00;;;;;;5129916;28;19903;-41
2021/05/16 12:40:38;;;;;;;;;;;17.60;63.10;;;;;;5143643;28;19911;-41
2021/05/16 12:43:04;;;;;;;;;;;17.60;63.10;;;;;;5144022;28;19904;-42
2021/05/16 12:45:30;;;;;;;;;;;17.60;63.10;;;;;;5128259;28;19920;-42
2021/05/16 12:47:57;;;;;;;;;;;17.60;63.10;;;;;;5122288;28;19967;-43
2021/05/16 12:50:36;;;;;;;;;;;17.70;63.10;;;;;;5123175;28;19912;-42
2021/05/16 12:53:20;;;;;;;;;;;17.60;63.10;;;;;;5123047;28;19915;-41
2021/05/16 12:55:46;;;;;;;;;;;17.70;63.10;;;;;;5123319;28;20017;-41
2021/05/16 12:58:18;;;;;;;;;;;17.70;63.00;;;;;;5122788;28;19912;-41
2021/05/16 13:00:51;;;;;;;;;;;17.70;63.10;;;;;;5122832;28;19903;-41
2021/05/16 13:03:25;;;;;;;;;;;17.70;63.00;;;;;;5124862;28;19911;-41
2021/05/16 13:05:51;;;;;;;;;;;17.70;63.00;;;;;;5126763;28;20027;-42
2021/05/16 13:08:49;;;;;;;;;;;17.70;63.00;;;;;;5126448;28;20268;-42
2021/05/16 13:11:15;;;;;;;;;;;17.70;62.90;;;;;;5100478;28;20038;-42
2021/05/16 13:13:44;;;;;;;;;;;17.70;62.90;;;;;;5100175;28;20405;-41
2021/05/16 13:16:11;;;;;;;;;;;17.70;62.90;;;;;;5082946;28;19915;-41
2021/05/16 13:18:43;;;;;;;;;;;17.70;62.80;;;;;;5082715;28;19905;-42
2021/05/16 13:21:09;;;;;;;;;;;17.80;62.80;;;;;;5066265;28;19948;-41
2021/05/16 13:23:35;;;;;;;;;;;17.80;62.70;;;;;;5082967;28;20281;-42
2021/05/16 13:26:01;;;;;;;;;;;17.80;62.70;;;;;;5076736;28;19959;-42
2021/05/16 13:28:28;;;;;;;;;;;17.80;62.70;;;;;;5062477;28;19913;-41
2021/05/16 13:30:58;;;;;;;;;;;17.80;62.70;;;;;;5062770;28;20455;-41
2021/05/16 13:33:36;;;;;;;;;;;17.80;62.80;;;;;;5079501;28;20105;-42
2021/05/16 13:36:03;;;;;;;;;;;17.80;62.70;;;;;;5082623;28;20009;-42
2021/05/16 13:38:30;;;;;;;;;;;17.80;62.70;;;;;;5084101;28;19904;-41
2021/05/16 13:41:00;;;;;;;;;;;17.80;62.80;;;;;;5098889;28;19912;-41
2021/05/16 13:43:26;;;;;;;;;;;17.80;62.80;;;;;;5101846;28;19952;-41
2021/05/16 13:45:52;;;;;;;;;;;17.90;63.00;;;;;;5086621;28;20627;-39
2021/05/16 13:48:18;;;;;;;;;;;17.90;63.10;;;;;;5125556;28;19975;-41
2021/05/16 13:50:43;;;;;;;;;;;17.90;63.00;;;;;;5125936;28;19998;-39
2021/05/16 13:53:09;;;;;;;;;;;17.90;62.90;;;;;;5125912;28;19915;-42
2021/05/16 13:55:35;;;;;;;;;;;17.90;63.00;;;;;;5125546;28;19924;-41
2021/05/16 13:58:02;;;;;;;;;;;18.00;63.00;;;;;;5125186;28;19911;-42
2021/05/16 14:00:29;;;;;;;;;;;18.00;63.00;;;;;;5125499;28;19915;-41
2021/05/16 14:02:55;;;;;;;;;;;18.00;63.00;;;;;;5125511;28;20384;-42
2021/05/16 14:05:21;;;;;;;;;;;18.00;63.00;;;;;;5125678;28;20331;-42
2021/05/16 14:07:47;;;;;;;;;;;18.00;62.90;;;;;;5125131;28;19904;-41
2021/05/16 14:10:13;;;;;;;;;;;18.00;62.90;;;;;;5134423;27;19911;-42
2021/05/16 14:12:39;;;;;;;;;;;18.10;62.80;;;;;;5142127;27;19950;-42
2021/05/16 14:15:05;;;;;;;;;;;18.10;62.90;;;;;;5129648;27;19930;-42
2021/05/16 14:17:31;;;;;;;;;;;18.10;62.80;;;;;;5125514;28;19919;-41
2021/05/16 14:19:57;;;;;;;;;;;18.10;62.80;;;;;;5124870;28;20406;-40